sensor_id;sensor_type;location;lat;lon;timestamp;P1;durP1;ratioP1;P2;durP2;ratioP2
18933;SDS011;9599;53.706;10.384;2023-06-19T00:00:34;8.47;;;6.60;;
18933;SDS011;9599;53.706;10.384;2023-06-19T00:03:02;7.97;;;6.77;;
18933;SDS011;9599;53.706;10.384;2023-06-19T00:05:31;7.60;;;6.53;;
18933;SDS011;9599;53.706;10.384;2023-06-19T00:07:59;9.03;;;7.10;;
18933;SDS011;9599;53.706;10.384;2023-06-19T00:10:28;7.17;;;6.33;;
18933;SDS011;9599;53.706;10.384;2023-06-19T00:12:56;10.07;;;7.47;;
18933;SDS011;9599;53.706;10.384;2023-06-19T00:15:24;9.90;;;7.20;;
18933;SDS011;9599;53.706;10.384;2023-06-19T00:17:53;8.77;;;7.23;;
18933;SDS011;9599;53.706;10.384;2023-06-19T00:20:22;8.07;;;7.27;;
18933;SDS011;9599;53.706;10.384;2023-06-19T00:22:51;8.63;;;7.30;;
18933;SDS011;9599;53.706;10.384;2023-06-19T00:25:20;10.03;;;7.53;;
18933;SDS011;9599;53.706;10.384;2023-06-19T00:27:49;8.87;;;7.93;;
18933;SDS011;9599;53.706;10.384;2023-06-19T00:30:18;8.10;;;7.30;;
18933;SDS011;9599;53.706;10.384;2023-06-19T00:32:47;7.97;;;7.17;;
18933;SDS011;9599;53.706;10.384;2023-06-19T00:35:16;8.97;;;7.40;;
18933;SDS011;9599;53.706;10.384;2023-06-19T00:37:46;7.93;;;7.10;;
18933;SDS011;9599;53.706;10.384;2023-06-19T00:40:19;8.23;;;7.10;;
18933;SDS011;9599;53.706;10.384;2023-06-19T00:42:55;10.50;;;7.47;;
18933;SDS011;9599;53.706;10.384;2023-06-19T00:45:23;12.10;;;8.40;;
18933;SDS011;9599;53.706;10.384;2023-06-19T00:47:52;11.13;;;7.93;;
18933;SDS011;9599;53.706;10.384;2023-06-19T00:50:20;10.00;;;7.83;;
18933;SDS011;9599;53.706;10.384;2023-06-19T00:52:49;8.50;;;7.47;;
18933;SDS011;9599;53.706;10.384;2023-06-19T00:55:17;9.27;;;7.77;;
18933;SDS011;9599;53.706;10.384;2023-06-19T00:57:46;9.73;;;8.03;;
18933;SDS011;9599;53.706;10.384;2023-06-19T01:00:17;8.67;;;7.63;;
18933;SDS011;9599;53.706;10.384;2023-06-19T01:02:45;10.03;;;7.90;;
18933;SDS011;9599;53.706;10.384;2023-06-19T01:05:14;10.03;;;7.43;;
18933;SDS011;9599;53.706;10.384;2023-06-19T01:07:44;8.93;;;7.63;;
18933;SDS011;9599;53.706;10.384;2023-06-19T01:10:18;11.03;;;7.90;;
18933;SDS011;9599;53.706;10.384;2023-06-19T01:12:52;9.80;;;7.80;;
18933;SDS011;9599;53.706;10.384;2023-06-19T01:15:25;8.63;;;7.57;;
18933;SDS011;9599;53.706;10.384;2023-06-19T01:17:54;11.30;;;7.87;;
18933;SDS011;9599;53.706;10.384;2023-06-19T01:20:24;8.90;;;8.00;;
18933;SDS011;9599;53.706;10.384;2023-06-19T01:22:53;9.60;;;7.90;;
18933;SDS011;9599;53.706;10.384;2023-06-19T01:25:24;10.10;;;7.63;;
18933;SDS011;9599;53.706;10.384;2023-06-19T01:27:52;11.93;;;8.23;;
18933;SDS011;9599;53.706;10.384;2023-06-19T01:30:20;9.80;;;8.37;;
18933;SDS011;9599;53.706;10.384;2023-06-19T01:32:50;13.40;;;8.73;;
18933;SDS011;9599;53.706;10.384;2023-06-19T01:35:26;10.13;;;8.40;;
18933;SDS011;9599;53.706;10.384;2023-06-19T01:37:58;11.50;;;8.60;;
18933;SDS011;9599;53.706;10.384;2023-06-19T01:40:31;11.87;;;8.63;;
18933;SDS011;9599;53.706;10.384;2023-06-19T01:43:02;12.20;;;8.97;;
18933;SDS011;9599;53.706;10.384;2023-06-19T01:45:31;12.03;;;8.83;;
18933;SDS011;9599;53.706;10.384;2023-06-19T01:48:00;10.93;;;9.27;;
18933;SDS011;9599;53.706;10.384;2023-06-19T01:50:28;9.97;;;8.50;;
18933;SDS011;9599;53.706;10.384;2023-06-19T01:52:56;10.53;;;8.87;;
18933;SDS011;9599;53.706;10.384;2023-06-19T01:55:25;15.07;;;9.13;;
18933;SDS011;9599;53.706;10.384;2023-06-19T01:57:56;10.77;;;8.07;;
18933;SDS011;9599;53.706;10.384;2023-06-19T02:00:24;9.93;;;8.30;;
18933;SDS011;9599;53.706;10.384;2023-06-19T02:02:52;11.43;;;8.60;;
18933;SDS011;9599;53.706;10.384;2023-06-19T02:05:21;12.43;;;8.77;;
18933;SDS011;9599;53.706;10.384;2023-06-19T02:07:49;10.83;;;8.57;;
18933;SDS011;9599;53.706;10.384;2023-06-19T02:10:17;9.17;;;8.17;;
18933;SDS011;9599;53.706;10.384;2023-06-19T02:12:46;11.47;;;8.80;;
18933;SDS011;9599;53.706;10.384;2023-06-19T02:15:14;11.80;;;9.30;;
18933;SDS011;9599;53.706;10.384;2023-06-19T02:17:43;11.03;;;8.80;;
18933;SDS011;9599;53.706;10.384;2023-06-19T02:20:12;9.77;;;8.30;;
18933;SDS011;9599;53.706;10.384;2023-06-19T02:22:40;11.03;;;8.60;;
18933;SDS011;9599;53.706;10.384;2023-06-19T02:25:08;10.90;;;8.63;;
18933;SDS011;9599;53.706;10.384;2023-06-19T02:27:36;10.33;;;8.60;;
18933;SDS011;9599;53.706;10.384;2023-06-19T02:30:07;10.70;;;9.10;;
18933;SDS011;9599;53.706;10.384;2023-06-19T02:32:35;12.20;;;8.60;;
18933;SDS011;9599;53.706;10.384;2023-06-19T02:35:04;9.17;;;8.00;;
18933;SDS011;9599;53.706;10.384;2023-06-19T02:37:34;10.00;;;8.33;;
18933;SDS011;9599;53.706;10.384;2023-06-19T02:40:03;9.90;;;8.57;;
18933;SDS011;9599;53.706;10.384;2023-06-19T02:42:32;9.27;;;8.33;;
18933;SDS011;9599;53.706;10.384;2023-06-19T02:45:00;11.67;;;8.93;;
18933;SDS011;9599;53.706;10.384;2023-06-19T02:47:31;10.03;;;8.13;;
18933;SDS011;9599;53.706;10.384;2023-06-19T02:50:00;8.83;;;7.93;;
18933;SDS011;9599;53.706;10.384;2023-06-19T02:52:30;9.90;;;8.47;;
18933;SDS011;9599;53.706;10.384;2023-06-19T02:54:58;11.60;;;8.37;;
18933;SDS011;9599;53.706;10.384;2023-06-19T02:57:28;11.43;;;8.47;;
18933;SDS011;9599;53.706;10.384;2023-06-19T02:59:56;9.63;;;8.00;;
18933;SDS011;9599;53.706;10.384;2023-06-19T03:02:25;11.20;;;8.13;;
18933;SDS011;9599;53.706;10.384;2023-06-19T03:04:55;11.27;;;8.47;;
18933;SDS011;9599;53.706;10.384;2023-06-19T03:07:23;9.00;;;8.10;;
18933;SDS011;9599;53.706;10.384;2023-06-19T03:09:54;10.13;;;7.60;;
18933;SDS011;9599;53.706;10.384;2023-06-19T03:12:22;9.90;;;8.10;;
18933;SDS011;9599;53.706;10.384;2023-06-19T03:14:51;9.60;;;7.73;;
18933;SDS011;9599;53.706;10.384;2023-06-19T03:17:21;9.27;;;7.67;;
18933;SDS011;9599;53.706;10.384;2023-06-19T03:19:49;10.00;;;7.93;;
18933;SDS011;9599;53.706;10.384;2023-06-19T03:22:19;9.60;;;7.67;;
18933;SDS011;9599;53.706;10.384;2023-06-19T03:24:47;11.60;;;8.13;;
18933;SDS011;9599;53.706;10.384;2023-06-19T03:27:19;10.70;;;8.53;;
18933;SDS011;9599;53.706;10.384;2023-06-19T03:29:47;9.77;;;8.27;;
18933;SDS011;9599;53.706;10.384;2023-06-19T03:32:21;11.70;;;8.50;;
18933;SDS011;9599;53.706;10.384;2023-06-19T03:34:49;10.17;;;8.13;;
18933;SDS011;9599;53.706;10.384;2023-06-19T03:37:19;10.43;;;8.40;;
18933;SDS011;9599;53.706;10.384;2023-06-19T03:39:48;9.87;;;8.63;;
18933;SDS011;9599;53.706;10.384;2023-06-19T03:42:16;10.93;;;8.37;;
18933;SDS011;9599;53.706;10.384;2023-06-19T03:44:44;11.80;;;9.00;;
18933;SDS011;9599;53.706;10.384;2023-06-19T03:47:12;11.37;;;8.23;;
18933;SDS011;9599;53.706;10.384;2023-06-19T03:49:41;10.57;;;8.80;;
18933;SDS011;9599;53.706;10.384;2023-06-19T03:52:08;11.53;;;8.40;;
18933;SDS011;9599;53.706;10.384;2023-06-19T03:54:38;10.13;;;7.27;;
18933;SDS011;9599;53.706;10.384;2023-06-19T03:57:06;13.20;;;8.60;;
18933;SDS011;9599;53.706;10.384;2023-06-19T03:59:36;10.07;;;8.27;;
18933;SDS011;9599;53.706;10.384;2023-06-19T04:02:04;10.27;;;8.87;;
18933;SDS011;9599;53.706;10.384;2023-06-19T04:04:32;7.50;;;6.73;;
18933;SDS011;9599;53.706;10.384;2023-06-19T04:07:00;7.77;;;6.97;;
18933;SDS011;9599;53.706;10.384;2023-06-19T04:09:30;9.13;;;8.23;;
18933;SDS011;9599;53.706;10.384;2023-06-19T04:12:01;9.73;;;8.47;;
18933;SDS011;9599;53.706;10.384;2023-06-19T04:14:31;9.90;;;8.23;;
18933;SDS011;9599;53.706;10.384;2023-06-19T04:16:59;8.70;;;7.67;;
18933;SDS011;9599;53.706;10.384;2023-06-19T04:19:27;9.83;;;7.90;;
18933;SDS011;9599;53.706;10.384;2023-06-19T04:21:56;8.97;;;7.73;;
18933;SDS011;9599;53.706;10.384;2023-06-19T04:24:26;9.67;;;8.13;;
18933;SDS011;9599;53.706;10.384;2023-06-19T04:26:55;9.97;;;7.40;;
18933;SDS011;9599;53.706;10.384;2023-06-19T04:29:24;9.50;;;8.37;;
18933;SDS011;9599;53.706;10.384;2023-06-19T04:31:52;8.53;;;7.63;;
18933;SDS011;9599;53.706;10.384;2023-06-19T04:34:20;9.17;;;7.83;;
18933;SDS011;9599;53.706;10.384;2023-06-19T04:36:48;11.17;;;8.00;;
18933;SDS011;9599;53.706;10.384;2023-06-19T04:39:17;8.67;;;7.30;;
18933;SDS011;9599;53.706;10.384;2023-06-19T04:41:46;9.97;;;7.60;;
18933;SDS011;9599;53.706;10.384;2023-06-19T04:44:15;8.47;;;7.50;;
18933;SDS011;9599;53.706;10.384;2023-06-19T04:46:44;9.67;;;7.50;;
18933;SDS011;9599;53.706;10.384;2023-06-19T04:49:13;8.20;;;7.17;;
18933;SDS011;9599;53.706;10.384;2023-06-19T04:51:41;8.20;;;7.17;;
18933;SDS011;9599;53.706;10.384;2023-06-19T04:54:09;8.33;;;7.07;;
18933;SDS011;9599;53.706;10.384;2023-06-19T04:56:37;9.00;;;7.83;;
18933;SDS011;9599;53.706;10.384;2023-06-19T04:59:05;8.30;;;7.23;;
18933;SDS011;9599;53.706;10.384;2023-06-19T05:01:33;9.33;;;7.53;;
18933;SDS011;9599;53.706;10.384;2023-06-19T05:04:03;7.77;;;6.97;;
18933;SDS011;9599;53.706;10.384;2023-06-19T05:06:31;7.90;;;6.33;;
18933;SDS011;9599;53.706;10.384;2023-06-19T05:08:59;8.10;;;6.63;;
18933;SDS011;9599;53.706;10.384;2023-06-19T05:11:27;8.67;;;7.10;;
18933;SDS011;9599;53.706;10.384;2023-06-19T05:13:55;8.53;;;7.10;;
18933;SDS011;9599;53.706;10.384;2023-06-19T05:16:23;7.57;;;6.37;;
18933;SDS011;9599;53.706;10.384;2023-06-19T05:18:51;9.50;;;7.33;;
18933;SDS011;9599;53.706;10.384;2023-06-19T05:21:21;9.30;;;6.77;;
18933;SDS011;9599;53.706;10.384;2023-06-19T05:23:49;10.33;;;7.07;;
18933;SDS011;9599;53.706;10.384;2023-06-19T05:26:19;9.17;;;6.73;;
18933;SDS011;9599;53.706;10.384;2023-06-19T05:28:48;8.33;;;6.90;;
18933;SDS011;9599;53.706;10.384;2023-06-19T05:31:16;8.03;;;7.07;;
18933;SDS011;9599;53.706;10.384;2023-06-19T05:33:44;11.23;;;7.33;;
18933;SDS011;9599;53.706;10.384;2023-06-19T05:36:13;10.43;;;7.40;;
18933;SDS011;9599;53.706;10.384;2023-06-19T05:38:43;8.73;;;6.93;;
18933;SDS011;9599;53.706;10.384;2023-06-19T05:41:11;5.57;;;4.13;;
18933;SDS011;9599;53.706;10.384;2023-06-19T05:43:42;7.23;;;6.50;;
18933;SDS011;9599;53.706;10.384;2023-06-19T05:46:10;9.60;;;6.83;;
18933;SDS011;9599;53.706;10.384;2023-06-19T05:48:38;7.37;;;6.37;;
18933;SDS011;9599;53.706;10.384;2023-06-19T05:51:07;8.73;;;7.00;;
18933;SDS011;9599;53.706;10.384;2023-06-19T05:53:35;7.30;;;5.70;;
18933;SDS011;9599;53.706;10.384;2023-06-19T05:56:06;9.27;;;8.10;;
18933;SDS011;9599;53.706;10.384;2023-06-19T05:58:34;11.93;;;9.20;;
18933;SDS011;9599;53.706;10.384;2023-06-19T06:01:02;11.50;;;10.40;;
18933;SDS011;9599;53.706;10.384;2023-06-19T06:03:30;11.17;;;9.97;;
18933;SDS011;9599;53.706;10.384;2023-06-19T06:05:59;8.97;;;7.97;;
18933;SDS011;9599;53.706;10.384;2023-06-19T06:08:29;13.73;;;10.73;;
18933;SDS011;9599;53.706;10.384;2023-06-19T06:10:57;10.20;;;8.37;;
18933;SDS011;9599;53.706;10.384;2023-06-19T06:13:26;13.70;;;10.30;;
18933;SDS011;9599;53.706;10.384;2023-06-19T06:15:55;17.40;;;9.60;;
18933;SDS011;9599;53.706;10.384;2023-06-19T06:18:23;10.30;;;9.13;;
18933;SDS011;9599;53.706;10.384;2023-06-19T06:20:52;12.97;;;11.67;;
18933;SDS011;9599;53.706;10.384;2023-06-19T06:23:20;11.43;;;10.23;;
18933;SDS011;9599;53.706;10.384;2023-06-19T06:25:50;11.57;;;10.03;;
18933;SDS011;9599;53.706;10.384;2023-06-19T06:28:18;10.27;;;9.13;;
18933;SDS011;9599;53.706;10.384;2023-06-19T06:30:48;13.13;;;9.53;;
18933;SDS011;9599;53.706;10.384;2023-06-19T06:33:16;11.50;;;10.30;;
18933;SDS011;9599;53.706;10.384;2023-06-19T06:35:44;10.53;;;9.53;;
18933;SDS011;9599;53.706;10.384;2023-06-19T06:38:12;13.37;;;9.23;;
18933;SDS011;9599;53.706;10.384;2023-06-19T06:40:41;10.83;;;8.80;;
18933;SDS011;9599;53.706;10.384;2023-06-19T06:43:09;9.03;;;7.57;;
18933;SDS011;9599;53.706;10.384;2023-06-19T06:45:37;10.13;;;7.70;;
18933;SDS011;9599;53.706;10.384;2023-06-19T06:48:09;10.47;;;8.03;;
18933;SDS011;9599;53.706;10.384;2023-06-19T06:50:37;10.07;;;7.63;;
18933;SDS011;9599;53.706;10.384;2023-06-19T06:53:07;9.93;;;7.87;;
18933;SDS011;9599;53.706;10.384;2023-06-19T06:55:36;9.20;;;6.37;;
18933;SDS011;9599;53.706;10.384;2023-06-19T06:58:04;8.43;;;6.37;;
18933;SDS011;9599;53.706;10.384;2023-06-19T07:00:32;3.77;;;2.53;;
18933;SDS011;9599;53.706;10.384;2023-06-19T07:03:00;2.00;;;1.63;;
18933;SDS011;9599;53.706;10.384;2023-06-19T07:05:31;1.63;;;1.53;;
18933;SDS011;9599;53.706;10.384;2023-06-19T07:07:59;6.13;;;1.17;;
18933;SDS011;9599;53.706;10.384;2023-06-19T07:10:27;1.10;;;0.90;;
18933;SDS011;9599;53.706;10.384;2023-06-19T07:12:55;0.80;;;0.80;;
18933;SDS011;9599;53.706;10.384;2023-06-19T07:15:24;0.70;;;0.60;;
18933;SDS011;9599;53.706;10.384;2023-06-19T07:17:52;1.17;;;0.90;;
18933;SDS011;9599;53.706;10.384;2023-06-19T07:20:20;1.07;;;1.00;;
18933;SDS011;9599;53.706;10.384;2023-06-19T07:22:51;0.70;;;0.70;;
18933;SDS011;9599;53.706;10.384;2023-06-19T07:25:22;1.10;;;1.07;;
18933;SDS011;9599;53.706;10.384;2023-06-19T07:27:52;0.80;;;0.80;;
18933;SDS011;9599;53.706;10.384;2023-06-19T07:30:20;0.70;;;0.70;;
18933;SDS011;9599;53.706;10.384;2023-06-19T07:32:48;0.93;;;0.90;;
18933;SDS011;9599;53.706;10.384;2023-06-19T07:35:17;0.63;;;0.63;;
18933;SDS011;9599;53.706;10.384;2023-06-19T07:37:45;0.70;;;0.60;;
18933;SDS011;9599;53.706;10.384;2023-06-19T07:40:14;0.73;;;0.73;;
18933;SDS011;9599;53.706;10.384;2023-06-19T07:42:43;0.83;;;0.83;;
18933;SDS011;9599;53.706;10.384;2023-06-19T07:45:11;2.90;;;1.43;;
18933;SDS011;9599;53.706;10.384;2023-06-19T07:47:40;1.57;;;1.47;;
18933;SDS011;9599;53.706;10.384;2023-06-19T07:50:09;0.90;;;0.90;;
18933;SDS011;9599;53.706;10.384;2023-06-19T07:52:37;1.30;;;0.50;;
18933;SDS011;9599;53.706;10.384;2023-06-19T07:55:06;1.53;;;1.30;;
18933;SDS011;9599;53.706;10.384;2023-06-19T07:57:36;1.17;;;1.07;;
18933;SDS011;9599;53.706;10.384;2023-06-19T08:00:05;5.30;;;1.70;;
18933;SDS011;9599;53.706;10.384;2023-06-19T08:02:37;1.07;;;0.87;;
18933;SDS011;9599;53.706;10.384;2023-06-19T08:05:06;0.90;;;0.90;;
18933;SDS011;9599;53.706;10.384;2023-06-19T08:07:36;2.70;;;0.57;;
18933;SDS011;9599;53.706;10.384;2023-06-19T08:10:05;2.90;;;1.60;;
18933;SDS011;9599;53.706;10.384;2023-06-19T08:12:42;0.93;;;0.93;;
18933;SDS011;9599;53.706;10.384;2023-06-19T08:15:10;3.07;;;1.53;;
18933;SDS011;9599;53.706;10.384;2023-06-19T08:17:40;1.10;;;1.00;;
18933;SDS011;9599;53.706;10.384;2023-06-19T08:20:09;0.70;;;0.70;;
18933;SDS011;9599;53.706;10.384;2023-06-19T08:22:38;1.07;;;0.97;;
18933;SDS011;9599;53.706;10.384;2023-06-19T08:25:06;1.30;;;0.80;;
18933;SDS011;9599;53.706;10.384;2023-06-19T08:27:35;0.80;;;0.80;;
18933;SDS011;9599;53.706;10.384;2023-06-19T08:30:06;1.93;;;1.30;;
18933;SDS011;9599;53.706;10.384;2023-06-19T08:32:35;0.50;;;0.50;;
18933;SDS011;9599;53.706;10.384;2023-06-19T08:35:04;1.47;;;1.37;;
18933;SDS011;9599;53.706;10.384;2023-06-19T08:37:33;2.57;;;1.63;;
18933;SDS011;9599;53.706;10.384;2023-06-19T08:40:01;1.20;;;0.97;;
18933;SDS011;9599;53.706;10.384;2023-06-19T08:42:32;1.00;;;1.00;;
18933;SDS011;9599;53.706;10.384;2023-06-19T08:45:01;1.07;;;0.97;;
18933;SDS011;9599;53.706;10.384;2023-06-19T08:47:30;1.57;;;1.47;;
18933;SDS011;9599;53.706;10.384;2023-06-19T08:50:00;1.03;;;1.03;;
18933;SDS011;9599;53.706;10.384;2023-06-19T08:52:28;1.23;;;1.03;;
18933;SDS011;9599;53.706;10.384;2023-06-19T08:54:56;2.30;;;1.37;;
18933;SDS011;9599;53.706;10.384;2023-06-19T08:57:32;1.17;;;0.90;;
18933;SDS011;9599;53.706;10.384;2023-06-19T09:00:01;2.00;;;1.27;;
18933;SDS011;9599;53.706;10.384;2023-06-19T09:02:41;1.53;;;1.20;;
18933;SDS011;9599;53.706;10.384;2023-06-19T09:05:14;1.50;;;0.93;;
18933;SDS011;9599;53.706;10.384;2023-06-19T09:07:43;1.30;;;1.20;;
18933;SDS011;9599;53.706;10.384;2023-06-19T09:10:13;1.53;;;1.43;;
18933;SDS011;9599;53.706;10.384;2023-06-19T09:12:55;1.73;;;1.10;;
18933;SDS011;9599;53.706;10.384;2023-06-19T09:15:27;0.77;;;0.77;;
18933;SDS011;9599;53.706;10.384;2023-06-19T09:18:02;1.47;;;1.23;;
18933;SDS011;9599;53.706;10.384;2023-06-19T09:20:32;1.27;;;1.07;;
18933;SDS011;9599;53.706;10.384;2023-06-19T09:23:01;0.77;;;0.77;;
18933;SDS011;9599;53.706;10.384;2023-06-19T09:25:29;1.23;;;1.00;;
18933;SDS011;9599;53.706;10.384;2023-06-19T09:27:57;0.70;;;0.70;;
18933;SDS011;9599;53.706;10.384;2023-06-19T09:30:26;1.13;;;1.07;;
18933;SDS011;9599;53.706;10.384;2023-06-19T09:32:54;1.10;;;1.10;;
18933;SDS011;9599;53.706;10.384;2023-06-19T09:35:23;1.07;;;0.97;;
18933;SDS011;9599;53.706;10.384;2023-06-19T09:37:56;1.43;;;1.27;;
18933;SDS011;9599;53.706;10.384;2023-06-19T09:40:25;0.80;;;0.70;;
18933;SDS011;9599;53.706;10.384;2023-06-19T09:42:53;1.03;;;0.93;;
18933;SDS011;9599;53.706;10.384;2023-06-19T09:45:27;1.57;;;1.47;;
18933;SDS011;9599;53.706;10.384;2023-06-19T09:47:56;0.75;;;0.75;;
18933;SDS011;9599;53.706;10.384;2023-06-19T09:50:42;0.90;;;0.90;;
18933;SDS011;9599;53.706;10.384;2023-06-19T09:53:11;2.25;;;1.33;;
18933;SDS011;9599;53.706;10.384;2023-06-19T09:55:39;1.33;;;1.20;;
18933;SDS011;9599;53.706;10.384;2023-06-19T09:58:08;1.17;;;1.08;;
18933;SDS011;9599;53.706;10.384;2023-06-19T10:00:37;1.70;;;1.50;;
18933;SDS011;9599;53.706;10.384;2023-06-19T10:03:11;1.05;;;1.05;;
18933;SDS011;9599;53.706;10.384;2023-06-19T10:05:39;0.85;;;0.85;;
18933;SDS011;9599;53.706;10.384;2023-06-19T10:08:09;0.90;;;0.85;;
18933;SDS011;9599;53.706;10.384;2023-06-19T10:10:45;1.42;;;1.33;;
18933;SDS011;9599;53.706;10.384;2023-06-19T10:13:15;1.13;;;1.02;;
18933;SDS011;9599;53.706;10.384;2023-06-19T10:15:44;0.80;;;0.80;;
18933;SDS011;9599;53.706;10.384;2023-06-19T10:18:14;1.40;;;1.30;;
18933;SDS011;9599;53.706;10.384;2023-06-19T10:20:47;0.52;;;0.52;;
18933;SDS011;9599;53.706;10.384;2023-06-19T10:23:17;1.15;;;1.05;;
18933;SDS011;9599;53.706;10.384;2023-06-19T10:25:47;2.53;;;1.10;;
18933;SDS011;9599;53.706;10.384;2023-06-19T10:28:24;0.95;;;0.95;;
18933;SDS011;9599;53.706;10.384;2023-06-19T10:30:54;1.13;;;1.02;;
18933;SDS011;9599;53.706;10.384;2023-06-19T10:33:22;0.98;;;0.98;;
18933;SDS011;9599;53.706;10.384;2023-06-19T10:35:51;0.50;;;0.50;;
18933;SDS011;9599;53.706;10.384;2023-06-19T10:38:20;0.73;;;0.73;;
18933;SDS011;9599;53.706;10.384;2023-06-19T10:40:49;0.80;;;0.80;;
18933;SDS011;9599;53.706;10.384;2023-06-19T10:43:19;1.73;;;1.27;;
18933;SDS011;9599;53.706;10.384;2023-06-19T10:45:49;2.85;;;1.65;;
18933;SDS011;9599;53.706;10.384;2023-06-19T10:48:23;1.33;;;1.20;;
18933;SDS011;9599;53.706;10.384;2023-06-19T10:50:52;1.52;;;1.30;;
18933;SDS011;9599;53.706;10.384;2023-06-19T10:53:25;1.42;;;1.15;;
18933;SDS011;9599;53.706;10.384;2023-06-19T10:55:55;0.57;;;0.57;;
18933;SDS011;9599;53.706;10.384;2023-06-19T10:58:23;1.23;;;1.13;;
18933;SDS011;9599;53.706;10.384;2023-06-19T11:00:52;0.52;;;0.52;;
18933;SDS011;9599;53.706;10.384;2023-06-19T11:03:20;0.52;;;0.52;;
18933;SDS011;9599;53.706;10.384;2023-06-19T11:05:48;0.35;;;0.35;;
18933;SDS011;9599;53.706;10.384;2023-06-19T11:08:18;0.98;;;0.98;;
18933;SDS011;9599;53.706;10.384;2023-06-19T11:10:48;0.80;;;0.80;;
18933;SDS011;9599;53.706;10.384;2023-06-19T11:13:17;0.50;;;0.50;;
18933;SDS011;9599;53.706;10.384;2023-06-19T11:15:47;1.05;;;1.05;;
18933;SDS011;9599;53.706;10.384;2023-06-19T11:18:17;1.05;;;1.00;;
18933;SDS011;9599;53.706;10.384;2023-06-19T11:20:46;0.50;;;0.50;;
18933;SDS011;9599;53.706;10.384;2023-06-19T11:23:17;0.80;;;0.80;;
18933;SDS011;9599;53.706;10.384;2023-06-19T11:26:01;1.23;;;0.85;;
18933;SDS011;9599;53.706;10.384;2023-06-19T11:28:30;0.75;;;0.70;;
18933;SDS011;9599;53.706;10.384;2023-06-19T11:30:58;0.88;;;0.88;;
18933;SDS011;9599;53.706;10.384;2023-06-19T11:33:28;0.60;;;0.60;;
18933;SDS011;9599;53.706;10.384;2023-06-19T11:35:59;0.70;;;0.70;;
18933;SDS011;9599;53.706;10.384;2023-06-19T11:38:29;0.85;;;0.85;;
18933;SDS011;9599;53.706;10.384;2023-06-19T11:40:59;1.63;;;0.90;;
18933;SDS011;9599;53.706;10.384;2023-06-19T11:43:27;2.47;;;1.05;;
18933;SDS011;9599;53.706;10.384;2023-06-19T11:46:01;0.98;;;0.88;;
18933;SDS011;9599;53.706;10.384;2023-06-19T11:48:30;0.80;;;0.80;;
18933;SDS011;9599;53.706;10.384;2023-06-19T11:50:59;0.68;;;0.68;;
18933;SDS011;9599;53.706;10.384;2023-06-19T11:53:27;0.63;;;0.60;;
18933;SDS011;9599;53.706;10.384;2023-06-19T11:55:55;0.88;;;0.88;;
18933;SDS011;9599;53.706;10.384;2023-06-19T11:58:24;0.88;;;0.82;;
18933;SDS011;9599;53.706;10.384;2023-06-19T12:00:53;0.77;;;0.77;;
18933;SDS011;9599;53.706;10.384;2023-06-19T12:03:22;1.58;;;1.27;;
18933;SDS011;9599;53.706;10.384;2023-06-19T12:05:51;0.88;;;0.68;;
18933;SDS011;9599;53.706;10.384;2023-06-19T12:08:19;1.77;;;1.00;;
18933;SDS011;9599;53.706;10.384;2023-06-19T12:10:47;1.55;;;1.20;;
18933;SDS011;9599;53.706;10.384;2023-06-19T12:13:16;0.80;;;0.77;;
18933;SDS011;9599;53.706;10.384;2023-06-19T12:15:45;1.25;;;1.15;;
18933;SDS011;9599;53.706;10.384;2023-06-19T12:18:13;0.80;;;0.68;;
18933;SDS011;9599;53.706;10.384;2023-06-19T12:20:41;1.02;;;0.85;;
18933;SDS011;9599;53.706;10.384;2023-06-19T12:23:09;0.98;;;0.88;;
18933;SDS011;9599;53.706;10.384;2023-06-19T12:25:37;1.10;;;1.10;;
18933;SDS011;9599;53.706;10.384;2023-06-19T12:28:05;0.73;;;0.73;;
18933;SDS011;9599;53.706;10.384;2023-06-19T12:30:34;1.10;;;0.80;;
18933;SDS011;9599;53.706;10.384;2023-06-19T12:33:05;0.75;;;0.75;;
18933;SDS011;9599;53.706;10.384;2023-06-19T12:35:33;0.90;;;0.90;;
18933;SDS011;9599;53.706;10.384;2023-06-19T12:38:01;0.50;;;0.50;;
18933;SDS011;9599;53.706;10.384;2023-06-19T12:40:33;0.95;;;0.88;;
18933;SDS011;9599;53.706;10.384;2023-06-19T12:43:01;2.33;;;1.67;;
18933;SDS011;9599;53.706;10.384;2023-06-19T12:45:29;0.90;;;0.90;;
18933;SDS011;9599;53.706;10.384;2023-06-19T12:47:57;0.90;;;0.90;;
18933;SDS011;9599;53.706;10.384;2023-06-19T12:50:27;0.60;;;0.60;;
18933;SDS011;9599;53.706;10.384;2023-06-19T12:52:57;1.30;;;0.95;;
18933;SDS011;9599;53.706;10.384;2023-06-19T12:55:24;0.77;;;0.77;;
18933;SDS011;9599;53.706;10.384;2023-06-19T12:57:53;0.80;;;0.80;;
18933;SDS011;9599;53.706;10.384;2023-06-19T13:00:21;1.25;;;1.15;;
18933;SDS011;9599;53.706;10.384;2023-06-19T13:02:49;0.60;;;0.60;;
18933;SDS011;9599;53.706;10.384;2023-06-19T13:05:17;0.55;;;0.55;;
18933;SDS011;9599;53.706;10.384;2023-06-19T13:07:47;0.45;;;0.45;;
18933;SDS011;9599;53.706;10.384;2023-06-19T13:10:15;1.15;;;1.02;;
18933;SDS011;9599;53.706;10.384;2023-06-19T13:12:43;0.68;;;0.68;;
18933;SDS011;9599;53.706;10.384;2023-06-19T13:15:12;0.80;;;0.73;;
18933;SDS011;9599;53.706;10.384;2023-06-19T13:17:40;2.38;;;0.75;;
18933;SDS011;9599;53.706;10.384;2023-06-19T13:20:08;0.47;;;0.45;;
18933;SDS011;9599;53.706;10.384;2023-06-19T13:22:36;0.40;;;0.40;;
18933;SDS011;9599;53.706;10.384;2023-06-19T13:25:06;0.90;;;0.90;;
18933;SDS011;9599;53.706;10.384;2023-06-19T13:27:35;1.42;;;0.70;;
18933;SDS011;9599;53.706;10.384;2023-06-19T13:30:03;3.42;;;1.63;;
18933;SDS011;9599;53.706;10.384;2023-06-19T13:32:32;0.55;;;0.55;;
18933;SDS011;9599;53.706;10.384;2023-06-19T13:35:00;0.88;;;0.85;;
18933;SDS011;9599;53.706;10.384;2023-06-19T13:37:28;0.80;;;0.80;;
18933;SDS011;9599;53.706;10.384;2023-06-19T13:39:57;1.00;;;1.00;;
18933;SDS011;9599;53.706;10.384;2023-06-19T13:42:28;0.80;;;0.80;;
18933;SDS011;9599;53.706;10.384;2023-06-19T13:44:57;0.40;;;0.40;;
18933;SDS011;9599;53.706;10.384;2023-06-19T13:47:25;0.50;;;0.50;;
18933;SDS011;9599;53.706;10.384;2023-06-19T13:49:54;0.63;;;0.63;;
18933;SDS011;9599;53.706;10.384;2023-06-19T13:52:22;0.70;;;0.70;;
18933;SDS011;9599;53.706;10.384;2023-06-19T13:54:51;0.98;;;0.80;;
18933;SDS011;9599;53.706;10.384;2023-06-19T13:57:22;0.63;;;0.63;;
18933;SDS011;9599;53.706;10.384;2023-06-19T13:59:51;0.52;;;0.52;;
18933;SDS011;9599;53.706;10.384;2023-06-19T14:02:20;0.65;;;0.65;;
18933;SDS011;9599;53.706;10.384;2023-06-19T14:04:48;0.65;;;0.65;;
18933;SDS011;9599;53.706;10.384;2023-06-19T14:07:16;0.77;;;0.77;;
18933;SDS011;9599;53.706;10.384;2023-06-19T14:09:46;1.80;;;1.02;;
18933;SDS011;9599;53.706;10.384;2023-06-19T14:12:14;0.50;;;0.50;;
18933;SDS011;9599;53.706;10.384;2023-06-19T14:14:43;0.47;;;0.47;;
18933;SDS011;9599;53.706;10.384;2023-06-19T14:17:13;0.73;;;0.73;;
18933;SDS011;9599;53.706;10.384;2023-06-19T14:19:41;0.43;;;0.43;;
18933;SDS011;9599;53.706;10.384;2023-06-19T14:22:09;0.50;;;0.50;;
18933;SDS011;9599;53.706;10.384;2023-06-19T14:24:37;0.50;;;0.50;;
18933;SDS011;9599;53.706;10.384;2023-06-19T14:27:06;1.38;;;1.15;;
18933;SDS011;9599;53.706;10.384;2023-06-19T14:29:34;1.88;;;1.27;;
18933;SDS011;9599;53.706;10.384;2023-06-19T14:32:02;0.40;;;0.40;;
18933;SDS011;9599;53.706;10.384;2023-06-19T14:34:33;0.57;;;0.57;;
18933;SDS011;9599;53.706;10.384;2023-06-19T14:37:01;1.02;;;1.02;;
18933;SDS011;9599;53.706;10.384;2023-06-19T14:39:30;2.15;;;0.70;;
18933;SDS011;9599;53.706;10.384;2023-06-19T14:41:58;1.08;;;0.68;;
18933;SDS011;9599;53.706;10.384;2023-06-19T14:44:26;0.88;;;0.88;;
18933;SDS011;9599;53.706;10.384;2023-06-19T14:46:54;0.43;;;0.43;;
18933;SDS011;9599;53.706;10.384;2023-06-19T14:49:23;0.47;;;0.47;;
18933;SDS011;9599;53.706;10.384;2023-06-19T14:51:52;0.60;;;0.60;;
18933;SDS011;9599;53.706;10.384;2023-06-19T14:54:23;0.95;;;0.77;;
18933;SDS011;9599;53.706;10.384;2023-06-19T14:56:51;0.60;;;0.60;;